Time;durP1;ratioP1;P1;durP2;ratioP2;P2;SDS_P1;SDS_P2;PMS_P1;PMS_P2;Temp;Humidity;BMP_temperature;BMP_pressure;BME280_temperature;BME280_humidity;BME280_pressure;Samples;Min_cycle;Max_cycle;Signal;HPM_P1;HPM_P2
2021/08/24 00:01:04;;;;;;;2;1.8;;;;;;;15.89;91.80078;942.5697;;;;
2021/08/24 00:03:29;;;;;;;2.1;1.9;;;;;;;15.94;91.72949;942.5638;;;;
2021/08/24 00:05:54;;;;;;;2.5;1.9;;;;;;;15.76;92.94141;942.5153;;;;
2021/08/24 00:08:20;;;;;;;1.7;1.6;;;;;;;15.72;93.53516;942.5748;;;;
2021/08/24 00:10:54;;;;;;;2;1.6;;;;;;;15.7;93.78516;942.5019;;;;
2021/08/24 00:13:19;;;;;;;2;1.8;;;;;;;15.66;94.09668;942.4626;;;;
2021/08/24 00:15:44;;;;;;;2.6;1.8;;;;;;;15.63;93.96387;942.4973;;;;
2021/08/24 00:18:09;;;;;;;2.4;2;;;;;;;15.69;94.04688;942.4641;;;;
2021/08/24 00:20:34;;;;;;;3.1;1.8;;;;;;;15.73;93.31543;942.4792;;;;
2021/08/24 00:22:59;;;;;;;2.1;1.7;;;;;;;15.67;93.31543;942.5179;;;;
2021/08/24 00:25:24;;;;;;;2.6;2.1;;;;;;;15.71;92.56055;942.4617;;;;
2021/08/24 00:27:50;;;;;;;2.1;1.9;;;;;;;15.78;92.00977;942.4645;;;;
2021/08/24 00:30:15;;;;;;;1.9;1.7;;;;;;;15.78;91.74414;942.5168;;;;
2021/08/24 00:32:40;;;;;;;2.2;1.9;;;;;;;15.78;92.00977;942.5047;;;;
2021/08/24 00:35:06;;;;;;;2;1.8;;;;;;;15.78;91.37402;942.5184;;;;
2021/08/24 00:37:31;;;;;;;2.5;1.9;;;;;;;15.73;91.83594;942.5443;;;;
2021/08/24 00:39:56;;;;;;;2.1;1.9;;;;;;;15.61;92.67969;942.5492;;;;
2021/08/24 00:42:21;;;;;;;3.6;1.9;;;;;;;15.64;93.19434;942.5197;;;;
2021/08/24 00:44:46;;;;;;;2.6;1.9;;;;;;;15.57;93.45605;942.4414;;;;
2021/08/24 00:47:11;;;;;;;3.1;2;;;;;;;15.53;93.98926;942.4793;;;;
2021/08/24 00:49:37;;;;;;;2.7;2.1;;;;;;;15.58;93.87402;942.4911;;;;
2021/08/24 00:52:02;;;;;;;2.4;2.1;;;;;;;15.6;93.19629;942.4456;;;;
2021/08/24 00:54:27;;;;;;;2.3;2.1;;;;;;;15.69;93.51563;942.4433;;;;
2021/08/24 00:56:52;;;;;;;2.1;1.9;;;;;;;15.57;93.38672;942.4615;;;;
2021/08/24 00:59:18;;;;;;;2.2;1.9;;;;;;;15.66;93.70605;942.4562;;;;
2021/08/24 01:01:43;;;;;;;1.8;1.7;;;;;;;15.66;93.31152;942.4137;;;;
2021/08/24 01:04:08;;;;;;;1.8;1.6;;;;;;;15.69;92.83203;942.4112;;;;
2021/08/24 01:06:34;;;;;;;2.2;1.9;;;;;;;15.66;92.80469;942.3799;;;;
2021/08/24 01:08:58;;;;;;;2.3;1.7;;;;;;;15.8;92.38281;942.3136;;;;
2021/08/24 01:11:23;;;;;;;2.7;1.8;;;;;;;15.8;92.79004;942.3778;;;;
2021/08/24 01:13:48;;;;;;;1.7;1.6;;;;;;;15.81;92.26953;942.3873;;;;
2021/08/24 01:16:13;;;;;;;1.7;1.6;;;;;;;15.75;91.65723;942.3442;;;;
2021/08/24 01:18:39;;;;;;;2;1.8;;;;;;;15.74;91.79395;942.3555;;;;
2021/08/24 01:21:04;;;;;;;2.5;2;;;;;;;15.63;91.94238;942.3416;;;;
2021/08/24 01:23:30;;;;;;;1.8;1.7;;;;;;;15.74;92.11523;942.3459;;;;
2021/08/24 01:25:55;;;;;;;2.8;1.8;;;;;;;15.81;92.51172;942.3546;;;;
2021/08/24 01:28:20;;;;;;;2;1.8;;;;;;;15.7;93.7373;942.3269;;;;
2021/08/24 01:30:47;;;;;;;2.5;2.1;;;;;;;15.72;93.5791;942.305;;;;
2021/08/24 01:33:10;;;;;;;2.6;2;;;;;;;15.76;93.02246;942.3153;;;;
2021/08/24 01:35:43;;;;;;;3.6;1.9;;;;;;;15.82;92.08691;942.3098;;;;
2021/08/24 01:38:01;;;;;;;2;1.7;;;;;;;15.8;91.50684;942.3144;;;;
2021/08/24 01:40:26;;;;;;;2.6;1.8;;;;;;;15.83;91.32715;942.3242;;;;
2021/08/24 01:42:51;;;;;;;2.6;1.6;;;;;;;15.78;92.34473;942.3136;;;;
2021/08/24 01:45:16;;;;;;;2.3;2.1;;;;;;;15.7;91.63574;942.3083;;;;
2021/08/24 01:47:41;;;;;;;2.1;1.9;;;;;;;15.78;91.05078;942.3;;;;
2021/08/24 01:50:08;;;;;;;2.5;2.3;;;;;;;15.69;91.33203;942.2811;;;;
2021/08/24 01:52:33;;;;;;;2.9;2.6;;;;;;;15.58;91.79492;942.3314;;;;
2021/08/24 01:54:58;;;;;;;3.7;2.6;;;;;;;15.47;91.43652;942.2403;;;;
2021/08/24 01:57:23;;;;;;;2.5;2.3;;;;;;;15.37;92.20117;942.3045;;;;
2021/08/24 01:59:48;;;;;;;2.9;2.6;;;;;;;15.42;91.80859;942.2252;;;;
2021/08/24 02:02:14;;;;;;;2.7;2.5;;;;;;;15.26;91.88965;942.2277;;;;
2021/08/24 02:04:39;;;;;;;2.7;2.4;;;;;;;15.27;92.21484;942.2349;;;;
2021/08/24 02:07:04;;;;;;;2.5;2.3;;;;;;;15.2;92.41699;942.2403;;;;
2021/08/24 02:09:29;;;;;;;2.9;2.4;;;;;;;15.25;92.18652;942.1836;;;;
2021/08/24 02:11:54;;;;;;;2.4;2.2;;;;;;;15.32;91.62402;942.173;;;;
2021/08/24 02:14:19;;;;;;;2.3;2.1;;;;;;;15.24;91.60742;942.1965;;;;
2021/08/24 02:16:44;;;;;;;2.7;2.3;;;;;;;15.31;91.44922;942.2203;;;;
2021/08/24 02:19:10;;;;;;;2.6;2.4;;;;;;;15.36;91.37793;942.2322;;;;
2021/08/24 02:21:35;;;;;;;2.4;2.2;;;;;;;15.28;91.47852;942.1931;;;;
2021/08/24 02:24:00;;;;;;;2.5;2.3;;;;;;;15.34;91.38574;942.1456;;;;
2021/08/24 02:26:25;;;;;;;2.4;2.2;;;;;;;15.3;91.50293;942.1537;;;;
2021/08/24 02:28:50;;;;;;;2.7;2.5;;;;;;;15.26;91.74023;942.1282;;;;
2021/08/24 02:31:15;;;;;;;2.9;2.6;;;;;;;15.25;91.32031;942.1258;;;;
2021/08/24 02:33:41;;;;;;;2.3;2.1;;;;;;;15.12;91.23633;942.1603;;;;
2021/08/24 02:36:06;;;;;;;2.4;2.2;;;;;;;14.97;92.0459;942.1627;;;;
2021/08/24 02:38:31;;;;;;;2.8;2.5;;;;;;;14.92;92.87891;942.137;;;;
2021/08/24 02:40:57;;;;;;;2.3;2.1;;;;;;;15;92.40039;942.1233;;;;
2021/08/24 02:43:22;;;;;;;4.3;2.9;;;;;;;14.96;92.35742;942.0608;;;;
2021/08/24 02:45:47;;;;;;;3.5;2.5;;;;;;;15.04;92.0498;942.1436;;;;
2021/08/24 02:48:13;;;;;;;3.4;2.7;;;;;;;15.11;91.74023;942.1595;;;;
2021/08/24 02:50:38;;;;;;;2.5;2.3;;;;;;;15.03;91.64453;942.162;;;;
2021/08/24 02:53:04;;;;;;;3.3;2.6;;;;;;;14.88;92.88281;942.1403;;;;
2021/08/24 02:55:29;;;;;;;2.9;2.6;;;;;;;14.99;91.98242;942.0639;;;;
2021/08/24 02:57:54;;;;;;;3;2.7;;;;;;;15.03;91.73633;942.1725;;;;
2021/08/24 03:00:19;;;;;;;2.6;2.4;;;;;;;14.85;92.79395;942.1692;;;;
2021/08/24 03:02:44;;;;;;;3.2;2.9;;;;;;;14.91;92.15039;942.1314;;;;
2021/08/24 03:05:10;;;;;;;3.3;2.6;;;;;;;14.83;92.90332;942.2205;;;;
2021/08/24 03:07:36;;;;;;;3.7;2.8;;;;;;;14.86;92.56543;942.1636;;;;
2021/08/24 03:10:00;;;;;;;2.8;2.5;;;;;;;14.92;92.15234;942.166;;;;
2021/08/24 03:12:25;;;;;;;2.7;2.5;;;;;;;15;91.77539;942.1289;;;;
2021/08/24 03:14:50;;;;;;;2.7;2.5;;;;;;;15.05;91.74219;942.1131;;;;
2021/08/24 03:17:15;;;;;;;2.7;2.4;;;;;;;15.08;91.71191;942.1869;;;;
2021/08/24 03:19:42;;;;;;;4.2;2.9;;;;;;;14.95;92.13477;942.1025;;;;
2021/08/24 03:22:06;;;;;;;3;2.7;;;;;;;15;92.23633;942.0896;;;;
2021/08/24 03:24:31;;;;;;;3.1;2.7;;;;;;;15;92.61914;942.1682;;;;
2021/08/24 03:26:56;;;;;;;3.7;2.9;;;;;;;15.01;92.43652;942.165;;;;
2021/08/24 03:29:22;;;;;;;3.9;2.6;;;;;;;15.03;92.41699;942.1556;;;;
2021/08/24 03:31:47;;;;;;;3.2;2.7;;;;;;;15.06;92.04395;942.2109;;;;
2021/08/24 03:34:12;;;;;;;3.2;2.4;;;;;;;15.02;92.05566;942.1428;;;;
2021/08/24 03:36:37;;;;;;;2.8;2.5;;;;;;;14.96;92.5293;942.1923;;;;
2021/08/24 03:39:02;;;;;;;3.4;3.1;;;;;;;14.77;93.15723;942.1794;;;;
2021/08/24 03:41:27;;;;;;;4.2;3.3;;;;;;;14.71;93.30762;942.1545;;;;
2021/08/24 03:43:53;;;;;;;4.3;3.3;;;;;;;14.82;92.99609;942.2438;;;;
2021/08/24 03:46:18;;;;;;;4.5;3.1;;;;;;;14.7;93.82422;942.2539;;;;
2021/08/24 03:48:43;;;;;;;6.1;3;;;;;;;14.72;93.51465;942.2363;;;;
2021/08/24 03:51:08;;;;;;;3.4;3.1;;;;;;;14.79;93.64551;942.1425;;;;
2021/08/24 03:53:33;;;;;;;3.4;3.1;;;;;;;14.72;93.77051;942.217;;;;
2021/08/24 03:55:58;;;;;;;3.2;2.8;;;;;;;14.8;93.40723;942.2307;;;;
2021/08/24 03:58:23;;;;;;;3.4;3.1;;;;;;;14.63;94.07324;942.2491;;;;
2021/08/24 04:02:31;;;;;;;3.2;2.7;;;;;;;14.8;93.47656;942.2491;;;;
2021/08/24 04:04:56;;;;;;;2.8;2.6;;;;;;;14.87;93.25977;942.3207;;;;
2021/08/24 04:07:21;;;;;;;4.7;3.2;;;;;;;14.94;93.02148;942.2749;;;;
2021/08/24 04:09:46;;;;;;;3.4;3.1;;;;;;;14.95;92.78027;942.2861;;;;
2021/08/24 04:12:13;;;;;;;3.3;2.7;;;;;;;14.95;92.90723;942.2853;;;;
2021/08/24 04:14:36;;;;;;;3.3;2.9;;;;;;;14.96;92.7959;942.262;;;;
2021/08/24 04:17:01;;;;;;;2.6;2.4;;;;;;;14.85;93.18652;942.2894;;;;
2021/08/24 04:19:26;;;;;;;4.3;2.4;;;;;;;14.86;93.73047;942.2317;;;;
2021/08/24 04:21:52;;;;;;;2.6;2.4;;;;;;;14.75;93.9375;942.3205;;;;
2021/08/24 04:24:17;;;;;;;2;1.9;;;;;;;14.71;93.52637;942.363;;;;
2021/08/24 04:26:42;;;;;;;2.4;2.2;;;;;;;14.85;93.53223;942.3713;;;;
2021/08/24 04:29:07;;;;;;;2.4;2.2;;;;;;;14.76;93.47852;942.3717;;;;
2021/08/24 04:31:32;;;;;;;2.4;2.2;;;;;;;14.6;94.30762;942.365;;;;
2021/08/24 04:33:57;;;;;;;2.5;2.3;;;;;;;14.58;94.90332;942.4163;;;;
2021/08/24 04:36:22;;;;;;;2.7;2.4;;;;;;;14.47;95.6748;942.4001;;;;
2021/08/24 04:38:47;;;;;;;3;2.7;;;;;;;14.64;94.91699;942.3878;;;;
2021/08/24 04:41:12;;;;;;;3.2;2.6;;;;;;;14.64;94.80176;942.4063;;;;
2021/08/24 04:43:37;;;;;;;3.2;2.9;;;;;;;14.59;95.28711;942.4355;;;;
2021/08/24 04:46:03;;;;;;;3.6;3.3;;;;;;;14.76;94.58496;942.4014;;;;
2021/08/24 04:48:28;;;;;;;3.1;2.8;;;;;;;14.72;94.64648;942.4383;;;;
2021/08/24 04:50:53;;;;;;;2.8;2.6;;;;;;;14.73;94.61426;942.4455;;;;
2021/08/24 04:53:18;;;;;;;2.9;2.6;;;;;;;14.71;94.65625;942.4094;;;;
2021/08/24 04:55:44;;;;;;;2.8;2.6;;;;;;;14.75;94.15625;942.3901;;;;
2021/08/24 04:58:09;;;;;;;3.4;2.7;;;;;;;14.79;94.33691;942.4535;;;;
2021/08/24 05:00:34;;;;;;;3.1;2.7;;;;;;;14.79;94.1416;942.391;;;;
2021/08/24 05:02:59;;;;;;;2.9;2.6;;;;;;;14.73;94.03711;942.4127;;;;
2021/08/24 05:05:24;;;;;;;2.3;2.1;;;;;;;14.78;94.02637;942.4688;;;;
2021/08/24 05:07:49;;;;;;;1.8;1.7;;;;;;;14.61;94.49414;942.4099;;;;
2021/08/24 05:10:14;;;;;;;2.1;1.9;;;;;;;14.58;94.98438;942.4427;;;;
2021/08/24 05:12:39;;;;;;;1.5;1.4;;;;;;;14.6;94.74609;942.4732;;;;
2021/08/24 05:15:06;;;;;;;1.3;1.2;;;;;;;14.55;94.29785;942.4692;;;;
2021/08/24 05:17:31;;;;;;;1.1;1;;;;;;;14.55;94.31152;942.4916;;;;
2021/08/24 05:19:56;;;;;;;1.5;1.4;;;;;;;14.67;94.12598;942.5096;;;;
2021/08/24 05:22:21;;;;;;;1.4;1.3;;;;;;;14.71;93.66504;942.4864;;;;
2021/08/24 05:25:51;;;;;;;1.5;1.3;;;;;;;14.67;94.09277;942.5288;;;;
2021/08/24 05:28:10;;;;;;;1.4;1.3;;;;;;;14.59;93.95996;942.5502;;;;
2021/08/24 05:30:35;;;;;;;1.4;1;;;;;;;14.47;94.23438;942.5284;;;;
2021/08/24 05:33:00;;;;;;;1.4;1.3;;;;;;;14.6;93.92773;942.5413;;;;
2021/08/24 05:35:25;;;;;;;1.4;1.3;;;;;;;14.62;93.59961;942.5545;;;;
2021/08/24 05:37:50;;;;;;;1.5;1.4;;;;;;;14.53;94.00586;942.5621;;;;
2021/08/24 05:40:15;;;;;;;1.6;1.3;;;;;;;14.59;93.81055;942.5934;;;;
2021/08/24 05:42:41;;;;;;;1.4;1.3;;;;;;;14.66;93.57227;942.5898;;;;
2021/08/24 05:45:06;;;;;;;1.8;1;;;;;;;14.57;93.40527;942.5284;;;;
2021/08/24 05:47:31;;;;;;;1.4;1.3;;;;;;;14.63;93.25488;942.6178;;;;
2021/08/24 05:49:56;;;;;;;1.5;1.4;;;;;;;14.5;93.45898;942.6182;;;;
2021/08/24 05:52:21;;;;;;;1.6;1.5;;;;;;;14.43;94.5957;942.5852;;;;
2021/08/24 05:54:47;;;;;;;1.7;1.6;;;;;;;14.46;94.35742;942.6389;;;;
2021/08/24 05:57:11;;;;;;;2.7;1.5;;;;;;;14.57;94.45215;942.6214;;;;
2021/08/24 05:59:36;;;;;;;1.6;1.5;;;;;;;14.61;94.28711;942.5974;;;;
2021/08/24 06:02:02;;;;;;;2.1;1.5;;;;;;;14.65;94.20215;942.6411;;;;
2021/08/24 06:04:29;;;;;;;1.7;1.6;;;;;;;14.72;92.96191;942.6508;;;;
2021/08/24 06:06:53;;;;;;;1.9;1.4;;;;;;;14.81;92.66016;942.6796;;;;
2021/08/24 06:09:17;;;;;;;1.7;1.5;;;;;;;14.84;92.38867;942.7184;;;;
2021/08/24 06:11:46;;;;;;;2.1;1.7;;;;;;;14.88;92.11035;942.7015;;;;
2021/08/24 06:14:08;;;;;;;1.9;1.7;;;;;;;14.95;92.21582;942.6983;;;;
2021/08/24 06:16:33;;;;;;;2.2;1.8;;;;;;;14.81;92.43848;942.6484;;;;
2021/08/24 06:18:58;;;;;;;2.5;1.8;;;;;;;14.75;92.75;942.6941;;;;
2021/08/24 06:21:23;;;;;;;2.4;2;;;;;;;14.84;92.59668;942.7008;;;;
2021/08/24 06:23:48;;;;;;;2.2;2;;;;;;;14.93;92.19824;942.7008;;;;
2021/08/24 06:26:13;;;;;;;2.1;1.9;;;;;;;15.03;91.84277;942.6697;;;;
2021/08/24 06:28:38;;;;;;;2.2;2;;;;;;;15.14;90.97461;942.7058;;;;
2021/08/24 06:31:04;;;;;;;2.2;2;;;;;;;15.23;90.50684;942.7156;;;;
2021/08/24 06:33:29;;;;;;;2.1;1.9;;;;;;;15.04;90.42383;942.685;;;;
2021/08/24 06:35:54;;;;;;;2.2;2;;;;;;;14.97;91.14648;942.7151;;;;
2021/08/24 06:38:19;;;;;;;2.4;2.1;;;;;;;15.02;90.91406;942.6922;;;;
2021/08/24 06:40:45;;;;;;;2.2;2;;;;;;;14.93;91.17383;942.6847;;;;
2021/08/24 06:43:10;;;;;;;2.5;2.2;;;;;;;14.94;90.7832;942.7177;;;;
2021/08/24 06:45:35;;;;;;;1.9;1.8;;;;;;;14.76;92.19824;942.7598;;;;
2021/08/24 06:48:00;;;;;;;2.6;2;;;;;;;14.87;91.57715;942.7313;;;;
2021/08/24 06:50:25;;;;;;;1.8;1.7;;;;;;;14.93;90.50488;942.7881;;;;
2021/08/24 06:52:51;;;;;;;2.2;2;;;;;;;15.04;90.41211;942.7227;;;;
2021/08/24 06:55:16;;;;;;;1.9;1.8;;;;;;;15.13;90.25781;942.7145;;;;
2021/08/24 06:57:41;;;;;;;1.8;1.7;;;;;;;15.13;90.2002;942.8013;;;;
2021/08/24 07:00:06;;;;;;;2;1.9;;;;;;;15.09;90.63086;942.8276;;;;
2021/08/24 07:02:31;;;;;;;1.8;1.7;;;;;;;14.94;91.04883;942.7785;;;;
2021/08/24 07:04:57;;;;;;;1.7;1.6;;;;;;;15;90.6582;942.8283;;;;
2021/08/24 07:07:22;;;;;;;1.8;1.7;;;;;;;14.99;90.77148;942.8026;;;;
2021/08/24 07:09:47;;;;;;;1.8;1.7;;;;;;;15.09;90.59473;942.8125;;;;
2021/08/24 07:12:12;;;;;;;1.7;1.6;;;;;;;15.06;90.69434;942.8462;;;;
2021/08/24 07:14:38;;;;;;;1.7;1.6;;;;;;;14.73;92.48145;942.8616;;;;
2021/08/24 07:17:05;;;;;;;2;1.8;;;;;;;15.08;91.14844;942.851;;;;
2021/08/24 07:19:30;;;;;;;1.8;1.7;;;;;;;15.2;89.46289;942.8452;;;;
2021/08/24 07:21:55;;;;;;;1.7;1.6;;;;;;;15.35;88.6748;942.8438;;;;
2021/08/24 07:24:20;;;;;;;1.7;1.6;;;;;;;15.4;88.66211;942.8148;;;;
2021/08/24 07:26:45;;;;;;;2.2;1.6;;;;;;;15.41;88.92969;942.7906;;;;
2021/08/24 07:29:11;;;;;;;2.5;1.7;;;;;;;15.37;88.46094;942.8397;;;;
2021/08/24 07:31:37;;;;;;;1.8;1.7;;;;;;;15.55;88.28906;942.8638;;;;
2021/08/24 07:34:01;;;;;;;1.9;1.8;;;;;;;15.73;87.08789;942.8422;;;;
2021/08/24 07:36:26;;;;;;;2.5;1.7;;;;;;;15.64;87.61426;942.8801;;;;
2021/08/24 07:38:51;;;;;;;1.9;1.8;;;;;;;15.76;87.90332;942.8123;;;;
2021/08/24 07:41:16;;;;;;;3;1.7;;;;;;;15.54;88.3916;942.8597;;;;
2021/08/24 07:43:41;;;;;;;2;1.7;;;;;;;15.94;86.54102;942.8811;;;;
2021/08/24 07:46:07;;;;;;;1.6;1.5;;;;;;;16.16;85.83203;942.7946;;;;
2021/08/24 07:48:33;;;;;;;1.7;1.5;;;;;;;15.99;87.27832;942.8126;;;;
2021/08/24 07:50:57;;;;;;;1.5;1.4;;;;;;;15.88;86.875;942.9111;;;;
2021/08/24 07:53:22;;;;;;;1.2;1.1;;;;;;;16.07;85.74316;942.8134;;;;
2021/08/24 07:55:47;;;;;;;1.1;1;;;;;;;16.41;85.63867;942.8875;;;;
2021/08/24 07:58:12;;;;;;;1.2;1.1;;;;;;;16.53;85.29102;942.8871;;;;
2021/08/24 08:00:38;;;;;;;1;1;;;;;;;15.99;87.30176;942.8785;;;;
2021/08/24 08:03:04;;;;;;;1.3;1.1;;;;;;;16.36;85.06055;942.9014;;;;
2021/08/24 08:05:29;;;;;;;1;1;;;;;;;16.36;83.92676;942.9352;;;;
2021/08/24 08:07:56;;;;;;;1.4;1.3;;;;;;;16.06;84.87598;942.9645;;;;
2021/08/24 08:10:20;;;;;;;1.4;1.3;;;;;;;15.87;85.80859;942.9881;;;;
2021/08/24 08:12:46;;;;;;;1.1;1.1;;;;;;;15.62;87.27344;943.0079;;;;
2021/08/24 08:15:11;;;;;;;1.9;1.8;;;;;;;15.43;88.54102;943.0815;;;;
2021/08/24 08:17:37;;;;;;;1.8;1.6;;;;;;;15.47;88.64063;943.063;;;;
2021/08/24 08:20:02;;;;;;;2.1;1.8;;;;;;;15.59;88.25;943.1072;;;;
2021/08/24 08:22:27;;;;;;;2.8;2.6;;;;;;;15.76;86.3877;943.1231;;;;
2021/08/24 08:24:53;;;;;;;6;3.3;;;;;;;15.61;88.74902;943.1103;;;;
2021/08/24 08:27:18;;;;;;;1.9;1.8;;;;;;;15.76;89.47363;943.2235;;;;
2021/08/24 08:29:43;;;;;;;1.9;1.8;;;;;;;16.05;86.22656;943.2497;;;;
2021/08/24 08:32:09;;;;;;;2;1.8;;;;;;;15.73;87.29492;943.2059;;;;
2021/08/24 08:34:33;;;;;;;1.7;1.6;;;;;;;15.9;86.83301;943.2667;;;;
2021/08/24 08:36:59;;;;;;;2.1;1.9;;;;;;;16.18;84.58594;943.25;;;;
2021/08/24 08:39:24;;;;;;;1.9;1.7;;;;;;;16.08;85.41113;943.2833;;;;
2021/08/24 08:41:50;;;;;;;1.9;1.8;;;;;;;16.01;85.89453;943.2704;;;;
2021/08/24 08:44:15;;;;;;;1.7;1.6;;;;;;;15.99;85.56738;943.244;;;;
2021/08/24 08:46:41;;;;;;;1.6;1.5;;;;;;;16.28;84.17871;943.2707;;;;
2021/08/24 08:49:15;;;;;;;1.5;1.4;;;;;;;16.2;84.02441;943.2531;;;;
2021/08/24 08:51:33;;;;;;;1.4;1.3;;;;;;;15.87;85.7041;943.295;;;;
2021/08/24 08:53:58;;;;;;;1.6;1.5;;;;;;;16.04;86.78027;943.3059;;;;
2021/08/24 08:56:24;;;;;;;3.6;2.1;;;;;;;15.91;85.41211;943.1688;;;;
2021/08/24 08:58:49;;;;;;;1.6;1.5;;;;;;;16.16;84.79102;943.2806;;;;
2021/08/24 09:01:14;;;;;;;1.1;1;;;;;;;16.34;82.48828;943.2271;;;;
2021/08/24 09:03:39;;;;;;;1.7;1.1;;;;;;;16.66;82.53613;943.3039;;;;
2021/08/24 09:06:04;;;;;;;1.4;1.3;;;;;;;16.89;81.7002;943.2516;;;;
2021/08/24 09:08:29;;;;;;;1.2;1.1;;;;;;;16.92;80.04883;943.3069;;;;
2021/08/24 09:10:54;;;;;;;1.1;1;;;;;;;17.13;78.7666;943.3016;;;;
2021/08/24 09:13:20;;;;;;;1.3;1.2;;;;;;;17.17;77.45117;943.2949;;;;
2021/08/24 09:15:45;;;;;;;1.5;1.2;;;;;;;17;79.19434;943.3256;;;;
2021/08/24 09:18:11;;;;;;;1.3;1.2;;;;;;;17.12;78.68262;943.3428;;;;
2021/08/24 09:20:36;;;;;;;1.7;1.3;;;;;;;16.76;81.45508;943.2867;;;;
2021/08/24 09:23:02;;;;;;;1.3;1.2;;;;;;;16.38;81.58301;943.2469;;;;
2021/08/24 09:25:26;;;;;;;1.7;1.4;;;;;;;16.66;80.36133;943.2335;;;;
2021/08/24 09:27:51;;;;;;;1.5;1.4;;;;;;;16.91;79.74414;943.3392;;;;
2021/08/24 09:30:16;;;;;;;1.6;1.5;;;;;;;17.06;78.7998;943.2989;;;;
2021/08/24 09:32:41;;;;;;;1.8;1.7;;;;;;;17.26;77.50195;943.2664;;;;
2021/08/24 09:35:07;;;;;;;1.8;1.7;;;;;;;16.72;79.88477;943.3103;;;;
2021/08/24 09:37:32;;;;;;;1.5;1.4;;;;;;;16.67;80.16602;943.3074;;;;
2021/08/24 09:39:57;;;;;;;2.4;1.7;;;;;;;16.74;79.1123;943.2853;;;;
2021/08/24 09:42:22;;;;;;;1.9;1.7;;;;;;;16.24;83.2334;943.4116;;;;
2021/08/24 09:44:47;;;;;;;2.3;1.8;;;;;;;16.72;80.64941;943.3256;;;;
2021/08/24 09:47:12;;;;;;;3.6;2.3;;;;;;;16.59;79.88477;943.3756;;;;
2021/08/24 09:49:38;;;;;;;3.1;2.3;;;;;;;16.43;82.01953;943.3547;;;;
2021/08/24 09:52:03;;;;;;;2.4;2.2;;;;;;;16.36;80.93164;943.3636;;;;
2021/08/24 09:54:28;;;;;;;2.5;2.3;;;;;;;16.59;80.9502;943.3474;;;;
2021/08/24 09:56:53;;;;;;;2.7;2.3;;;;;;;16.08;83.66699;943.3339;;;;
2021/08/24 09:59:18;;;;;;;3;2.5;;;;;;;16.32;83.25879;943.351;;;;
2021/08/24 10:01:45;;;;;;;3.5;2.7;;;;;;;16.02;84.16309;943.3912;;;;
2021/08/24 10:04:10;;;;;;;4;2.9;;;;;;;16.05;85.66016;943.4047;;;;
2021/08/24 10:06:36;;;;;;;10.2;4.6;;;;;;;15.74;85.79688;943.3665;;;;
2021/08/24 10:09:01;;;;;;;3;2.7;;;;;;;16.07;83.94238;943.3798;;;;
2021/08/24 10:11:26;;;;;;;3.3;3;;;;;;;16.22;83.64648;943.3931;;;;
2021/08/24 10:13:52;;;;;;;3.2;2.9;;;;;;;16.05;83.69629;943.3814;;;;
2021/08/24 10:16:16;;;;;;;3.5;3;;;;;;;15.78;86.25488;943.3712;;;;
2021/08/24 10:18:41;;;;;;;3.7;3.2;;;;;;;15.97;84.59277;943.4296;;;;
2021/08/24 10:21:06;;;;;;;3.2;2.9;;;;;;;16.07;83.59277;943.3983;;;;
2021/08/24 10:23:34;;;;;;;3.8;3.1;;;;;;;16.18;83.25586;943.4709;;;;
2021/08/24 10:25:58;;;;;;;3.1;2.8;;;;;;;16.31;82.58789;943.4128;;;;
2021/08/24 10:28:23;;;;;;;4;3.1;;;;;;;16.53;81.16992;943.3953;;;;
2021/08/24 10:30:48;;;;;;;3.2;2.9;;;;;;;16.31;82.47168;943.4177;;;;
2021/08/24 10:33:13;;;;;;;3.4;3.1;;;;;;;16.74;80.33008;943.4026;;;;
2021/08/24 10:35:38;;;;;;;3.4;2.7;;;;;;;17.1;79.48047;943.3928;;;;
2021/08/24 10:38:03;;;;;;;4.2;3.1;;;;;;;17.32;77.30273;943.3342;;;;
2021/08/24 10:40:29;;;;;;;3.2;2.9;;;;;;;17.37;78.00879;943.4094;;;;
2021/08/24 10:42:53;;;;;;;2.6;2.4;;;;;;;17.18;77.99805;943.3753;;;;
2021/08/24 10:45:19;;;;;;;2.8;2.5;;;;;;;17.35;77.62207;943.3742;;;;
2021/08/24 10:47:44;;;;;;;3.3;2.4;;;;;;;16.95;80.1709;943.4233;;;;
2021/08/24 10:50:09;;;;;;;3.8;2.5;;;;;;;16.96;79.7666;943.4249;;;;
2021/08/24 10:52:34;;;;;;;3;2.6;;;;;;;17.01;79.45215;943.4084;;;;
2021/08/24 10:54:59;;;;;;;2.9;2.6;;;;;;;17.11;78.9707;943.317;;;;
2021/08/24 10:57:24;;;;;;;3.5;2.5;;;;;;;17.27;77.93262;943.3765;;;;
2021/08/24 10:59:49;;;;;;;2.6;2.4;;;;;;;17.28;79.2793;943.3957;;;;
2021/08/24 11:02:14;;;;;;;3.4;2.4;;;;;;;17.39;77.10645;943.3658;;;;
2021/08/24 11:04:39;;;;;;;2.1;1.9;;;;;;;17.53;77.3291;943.3141;;;;
2021/08/24 11:07:05;;;;;;;2.3;1.9;;;;;;;17.37;76.04785;943.3611;;;;
2021/08/24 11:09:30;;;;;;;3.1;2;;;;;;;17.46;76.94531;943.4396;;;;
2021/08/24 11:11:55;;;;;;;2;1.8;;;;;;;17.32;76.99023;943.4285;;;;
2021/08/24 11:14:20;;;;;;;2.2;2;;;;;;;17.47;76.30957;943.4427;;;;
2021/08/24 11:16:45;;;;;;;2.9;1.9;;;;;;;17.23;78.00781;943.438;;;;
2021/08/24 11:19:10;;;;;;;2;1.8;;;;;;;17.39;76.00488;943.4102;;;;
2021/08/24 11:21:36;;;;;;;2.1;1.9;;;;;;;17.25;79.5293;943.3235;;;;
2021/08/24 11:24:00;;;;;;;1.9;1.8;;;;;;;17.07;78.79004;943.3375;;;;
2021/08/24 11:26:26;;;;;;;2.3;2.1;;;;;;;17.41;79.09375;943.3416;;;;
2021/08/24 11:28:52;;;;;;;2.3;2.1;;;;;;;17.19;80.67773;943.3301;;;;
2021/08/24 11:31:16;;;;;;;2.2;2;;;;;;;17.4;78.16406;943.3264;;;;
2021/08/24 11:33:41;;;;;;;2.2;2;;;;;;;17.34;79.60254;943.3936;;;;
2021/08/24 11:36:06;;;;;;;2.2;2;;;;;;;17.52;78.91699;943.4495;;;;
2021/08/24 11:38:31;;;;;;;2;1.9;;;;;;;17.82;77.05566;943.4426;;;;
2021/08/24 11:40:58;;;;;;;2;1.9;;;;;;;18.02;75.37109;943.4182;;;;
2021/08/24 11:43:23;;;;;;;2.1;2;;;;;;;17.76;77.25488;943.3954;;;;
2021/08/24 11:45:48;;;;;;;2.9;2.2;;;;;;;17.4;78.0498;943.4534;;;;
2021/08/24 11:48:13;;;;;;;2.6;2.2;;;;;;;17.32;78.64941;943.4493;;;;
2021/08/24 11:50:39;;;;;;;2.3;2.1;;;;;;;17.69;77.38086;943.476;;;;
2021/08/24 11:53:04;;;;;;;2.4;2.2;;;;;;;17.79;75.87793;943.4878;;;;
2021/08/24 11:55:29;;;;;;;3.1;2.8;;;;;;;17.36;78.26172;943.4113;;;;
2021/08/24 11:57:55;;;;;;;2.5;2.3;;;;;;;16.87;80.80469;943.5381;;;;
2021/08/24 12:00:20;;;;;;;7.6;5.4;;;;;;;16.55;81.87988;943.4072;;;;
2021/08/24 12:02:45;;;;;;;3.3;3;;;;;;;16.24;85.53516;943.4783;;;;
2021/08/24 12:05:10;;;;;;;3;2.7;;;;;;;16.48;83.26855;943.4019;;;;
2021/08/24 12:07:35;;;;;;;3.4;3.1;;;;;;;16.5;84.24414;943.4444;;;;
2021/08/24 12:10:01;;;;;;;3.1;2.8;;;;;;;16.62;82.81934;943.4811;;;;
2021/08/24 12:12:26;;;;;;;3.9;2.8;;;;;;;16.38;83.73535;943.4189;;;;
2021/08/24 12:14:52;;;;;;;3.3;3;;;;;;;16.49;83.30469;943.4653;;;;
2021/08/24 12:17:16;;;;;;;3.2;2.9;;;;;;;17.19;82.19824;943.4243;;;;
2021/08/24 12:19:41;;;;;;;4.6;4;;;;;;;17.23;81.18457;943.4637;;;;
2021/08/24 12:22:06;;;;;;;3.3;3;;;;;;;17.49;80.2334;943.4683;;;;
2021/08/24 12:24:32;;;;;;;4.3;3.7;;;;;;;17.54;79.10645;943.5122;;;;
2021/08/24 12:26:57;;;;;;;3;2.7;;;;;;;17.94;76.31055;943.4899;;;;
2021/08/24 12:29:22;;;;;;;2.8;2.6;;;;;;;17.6;77.69043;943.6074;;;;
2021/08/24 12:31:48;;;;;;;2.6;2.4;;;;;;;17.89;75.90723;943.5878;;;;
2021/08/24 12:34:14;;;;;;;2.8;2.6;;;;;;;18.12;76.74902;943.5535;;;;
2021/08/24 12:36:39;;;;;;;3;2.7;;;;;;;17.51;77.59277;943.5051;;;;
2021/08/24 12:39:04;;;;;;;3.2;2.9;;;;;;;17.17;78.96973;943.5234;;;;
2021/08/24 12:41:29;;;;;;;3.9;3.5;;;;;;;16.77;80.24219;943.5377;;;;
2021/08/24 12:43:55;;;;;;;4.2;3.4;;;;;;;16.79;80.80273;943.5697;;;;
2021/08/24 12:46:22;;;;;;;2.7;2.5;;;;;;;17.18;77.44141;943.5419;;;;
2021/08/24 12:48:45;;;;;;;3;2.7;;;;;;;17;78.9043;943.5397;;;;
2021/08/24 12:51:26;;;;;;;3.5;3;;;;;;;16.59;79.83887;943.4994;;;;
2021/08/24 12:53:51;;;;;;;3.3;2.4;;;;;;;16.89;80.02051;943.4672;;;;
2021/08/24 12:56:16;;;;;;;8.7;4.4;;;;;;;16.51;82.79883;943.4966;;;;
2021/08/24 12:58:41;;;;;;;3.6;3.3;;;;;;;16.46;84.62891;943.5926;;;;
2021/08/24 13:01:06;;;;;;;3.6;3;;;;;;;16.94;80.29492;943.6117;;;;
2021/08/24 13:03:31;;;;;;;3.1;2.7;;;;;;;16.98;79.13281;943.5937;;;;
2021/08/24 13:05:57;;;;;;;3.9;3;;;;;;;16.88;80.16797;943.6;;;;
2021/08/24 13:08:22;;;;;;;2.6;2.4;;;;;;;17.28;77.92285;943.6613;;;;
2021/08/24 13:10:47;;;;;;;3.5;2.8;;;;;;;17.39;76.74707;943.6283;;;;
2021/08/24 13:13:12;;;;;;;4.8;2.9;;;;;;;17.64;77.63867;943.572;;;;
2021/08/24 13:15:40;;;;;;;3.3;3;;;;;;;17.5;77.69629;943.6591;;;;
2021/08/24 13:18:02;;;;;;;3.6;2.8;;;;;;;17.64;77.83594;943.6686;;;;
2021/08/24 13:20:27;;;;;;;3.7;2.9;;;;;;;17.62;77.4248;943.5513;;;;
2021/08/24 13:22:53;;;;;;;2.7;2.5;;;;;;;17.81;76.53125;943.6367;;;;
2021/08/24 13:25:18;;;;;;;4.4;3.1;;;;;;;17.75;75.43066;943.58;;;;
2021/08/24 13:27:43;;;;;;;2.7;2.4;;;;;;;17.89;75.45215;943.5339;;;;
2021/08/24 13:30:09;;;;;;;3.1;2.8;;;;;;;18.11;76.01367;943.5004;;;;
2021/08/24 13:32:33;;;;;;;3.1;2.8;;;;;;;18.33;73.5752;943.5013;;;;
2021/08/24 13:34:58;;;;;;;3;2.7;;;;;;;18.48;72.36914;943.5481;;;;
2021/08/24 13:37:23;;;;;;;3.4;3.1;;;;;;;18.04;74.10938;943.539;;;;
2021/08/24 13:39:48;;;;;;;3.3;3;;;;;;;17.84;75.75977;943.5336;;;;
2021/08/24 13:42:13;;;;;;;3.1;2.6;;;;;;;18;75.67969;943.623;;;;
2021/08/24 13:44:38;;;;;;;3.3;2.8;;;;;;;17.68;76.0918;943.617;;;;
2021/08/24 13:47:04;;;;;;;3.6;3.3;;;;;;;17.75;75.55859;943.6042;;;;
2021/08/24 13:49:29;;;;;;;3.5;3.2;;;;;;;17.8;74.40527;943.5183;;;;
2021/08/24 13:51:54;;;;;;;3.8;3.4;;;;;;;17.77;75.86133;943.6434;;;;
2021/08/24 13:54:19;;;;;;;3.1;2.8;;;;;;;17.88;75.87012;943.5234;;;;
2021/08/24 13:56:44;;;;;;;4.4;3.5;;;;;;;17.45;77.53516;943.5218;;;;
2021/08/24 13:59:10;;;;;;;3.5;3.2;;;;;;;17.38;77.57129;943.5059;;;;
2021/08/24 14:01:35;;;;;;;3.5;3.2;;;;;;;17.56;76.99902;943.4587;;;;
2021/08/24 14:04:00;;;;;;;3.8;3.4;;;;;;;17.75;76.36914;943.4568;;;;
2021/08/24 14:06:25;;;;;;;5;4.4;;;;;;;17.49;77.79688;943.4619;;;;
2021/08/24 14:08:50;;;;;;;3.8;3.5;;;;;;;17.41;78.82715;943.4849;;;;
2021/08/24 14:11:15;;;;;;;3.4;3.1;;;;;;;17.62;77.79688;943.4997;;;;
2021/08/24 14:13:40;;;;;;;2.9;2.7;;;;;;;17.98;74.88672;943.4669;;;;
2021/08/24 14:16:05;;;;;;;3.3;3;;;;;;;17.71;75.92188;943.4612;;;;